sensor_id;sensor_type;location;lat;lon;timestamp;pressure;altitude;pressure_sealevel;temperature;humidity
46876;BME280;32866;50.160;14.768;2022-07-06T00:01:47;99677.97;;;15.25;100.00
46876;BME280;32866;50.160;14.768;2022-07-06T00:04:12;99673.50;;;15.37;100.00
46876;BME280;32866;50.160;14.768;2022-07-06T00:06:38;99678.41;;;15.42;100.00
46876;BME280;32866;50.160;14.768;2022-07-06T00:09:04;99676.38;;;15.52;100.00
46876;BME280;32866;50.160;14.768;2022-07-06T00:11:30;99668.22;;;15.48;100.00
46876;BME280;32866;50.160;14.768;2022-07-06T00:13:55;99682.88;;;15.73;100.00
46876;BME280;32866;50.160;14.768;2022-07-06T00:16:22;99678.13;;;15.73;100.00
46876;BME280;32866;50.160;14.768;2022-07-06T00:18:47;99669.44;;;15.56;100.00
46876;BME280;32866;50.160;14.768;2022-07-06T00:21:12;99647.75;;;15.31;100.00
46876;BME280;32866;50.160;14.768;2022-07-06T00:23:38;99681.41;;;15.53;100.00
46876;BME280;32866;50.160;14.768;2022-07-06T00:26:03;99664.31;;;15.31;100.00
46876;BME280;32866;50.160;14.768;2022-07-06T00:28:28;99669.47;;;15.47;100.00
46876;BME280;32866;50.160;14.768;2022-07-06T00:30:54;99679.91;;;15.52;100.00
46876;BME280;32866;50.160;14.768;2022-07-06T00:33:20;99662.13;;;15.35;100.00
46876;BME280;32866;50.160;14.768;2022-07-06T00:35:45;99649.53;;;15.43;100.00
46876;BME280;32866;50.160;14.768;2022-07-06T00:38:11;99672.66;;;15.55;100.00
46876;BME280;32866;50.160;14.768;2022-07-06T00:40:36;99654.31;;;15.43;100.00
46876;BME280;32866;50.160;14.768;2022-07-06T00:43:01;99649.00;;;15.20;100.00
46876;BME280;32866;50.160;14.768;2022-07-06T00:45:27;99677.16;;;15.43;100.00
46876;BME280;32866;50.160;14.768;2022-07-06T00:47:52;99646.25;;;15.11;100.00
46876;BME280;32866;50.160;14.768;2022-07-06T00:50:18;99686.38;;;15.40;100.00
46876;BME280;32866;50.160;14.768;2022-07-06T00:52:59;99682.41;;;15.23;100.00
46876;BME280;32866;50.160;14.768;2022-07-06T00:55:27;99710.94;;;15.29;100.00
46876;BME280;32866;50.160;14.768;2022-07-06T00:57:53;99735.03;;;15.19;100.00
46876;BME280;32866;50.160;14.768;2022-07-06T01:00:21;99722.91;;;15.26;100.00
46876;BME280;32866;50.160;14.768;2022-07-06T01:02:47;99722.25;;;15.49;100.00
46876;BME280;32866;50.160;14.768;2022-07-06T01:05:14;99707.06;;;15.54;100.00
46876;BME280;32866;50.160;14.768;2022-07-06T01:07:42;99702.94;;;15.40;100.00
46876;BME280;32866;50.160;14.768;2022-07-06T01:10:10;99706.94;;;15.39;100.00
46876;BME280;32866;50.160;14.768;2022-07-06T01:12:38;99717.94;;;15.48;100.00
46876;BME280;32866;50.160;14.768;2022-07-06T01:15:07;99709.34;;;15.46;100.00
46876;BME280;32866;50.160;14.768;2022-07-06T01:17:33;99715.03;;;15.43;100.00
46876;BME280;32866;50.160;14.768;2022-07-06T01:22:35;99718.91;;;15.27;100.00
46876;BME280;32866;50.160;14.768;2022-07-06T01:25:01;99694.69;;;15.03;100.00
46876;BME280;32866;50.160;14.768;2022-07-06T01:27:26;99716.16;;;15.27;100.00
46876;BME280;32866;50.160;14.768;2022-07-06T01:29:51;99687.00;;;15.16;100.00
46876;BME280;32866;50.160;14.768;2022-07-06T01:32:16;99710.94;;;15.29;100.00
46876;BME280;32866;50.160;14.768;2022-07-06T01:34:42;99731.78;;;15.39;100.00
46876;BME280;32866;50.160;14.768;2022-07-06T01:37:07;99729.00;;;15.30;100.00
46876;BME280;32866;50.160;14.768;2022-07-06T01:39:32;99729.59;;;15.43;100.00
46876;BME280;32866;50.160;14.768;2022-07-06T01:41:58;99719.97;;;15.38;100.00
46876;BME280;32866;50.160;14.768;2022-07-06T01:44:23;99740.03;;;15.48;100.00
46876;BME280;32866;50.160;14.768;2022-07-06T01:46:48;99734.84;;;15.41;100.00
46876;BME280;32866;50.160;14.768;2022-07-06T01:49:13;99736.50;;;15.48;100.00
46876;BME280;32866;50.160;14.768;2022-07-06T01:51:39;99735.75;;;15.38;99.69
46876;BME280;32866;50.160;14.768;2022-07-06T01:54:05;99738.84;;;15.40;100.00
46876;BME280;32866;50.160;14.768;2022-07-06T01:56:30;99735.78;;;15.29;100.00
46876;BME280;32866;50.160;14.768;2022-07-06T01:58:55;99732.41;;;15.25;100.00
46876;BME280;32866;50.160;14.768;2022-07-06T02:01:22;99702.34;;;15.17;100.00
46876;BME280;32866;50.160;14.768;2022-07-06T02:03:48;99741.59;;;15.21;97.25
46876;BME280;32866;50.160;14.768;2022-07-06T02:06:13;99741.59;;;15.21;98.56
46876;BME280;32866;50.160;14.768;2022-07-06T02:08:39;99730.56;;;15.21;96.07
46876;BME280;32866;50.160;14.768;2022-07-06T02:11:05;99731.34;;;15.22;96.29
46876;BME280;32866;50.160;14.768;2022-07-06T02:13:31;99733.03;;;15.10;95.34
46876;BME280;32866;50.160;14.768;2022-07-06T02:15:56;99726.72;;;15.10;96.29
46876;BME280;32866;50.160;14.768;2022-07-06T02:18:22;99727.53;;;15.10;97.43
46876;BME280;32866;50.160;14.768;2022-07-06T02:20:47;99730.44;;;14.97;96.75
46876;BME280;32866;50.160;14.768;2022-07-06T02:23:12;99728.28;;;14.92;97.58
46876;BME280;32866;50.160;14.768;2022-07-06T02:25:37;99737.63;;;14.95;98.13
46876;BME280;32866;50.160;14.768;2022-07-06T02:28:03;99730.44;;;14.88;94.61
46876;BME280;32866;50.160;14.768;2022-07-06T02:30:28;99741.63;;;14.94;94.62
46876;BME280;32866;50.160;14.768;2022-07-06T02:32:53;99745.28;;;14.81;94.45
46876;BME280;32866;50.160;14.768;2022-07-06T02:35:19;99741.00;;;14.90;94.84
46876;BME280;32866;50.160;14.768;2022-07-06T02:37:44;99732.59;;;14.93;94.41
46876;BME280;32866;50.160;14.768;2022-07-06T02:40:09;99718.16;;;14.89;94.77
46876;BME280;32866;50.160;14.768;2022-07-06T02:42:35;99726.00;;;14.81;95.58
46876;BME280;32866;50.160;14.768;2022-07-06T02:45:00;99734.53;;;14.74;94.54
46876;BME280;32866;50.160;14.768;2022-07-06T02:47:25;99734.25;;;14.91;95.07
46876;BME280;32866;50.160;14.768;2022-07-06T02:49:53;99732.09;;;14.67;96.54
46876;BME280;32866;50.160;14.768;2022-07-06T02:52:19;99737.00;;;14.72;97.45
46876;BME280;32866;50.160;14.768;2022-07-06T02:54:44;99731.78;;;14.65;96.57
46876;BME280;32866;50.160;14.768;2022-07-06T02:57:09;99730.25;;;14.64;97.50
46876;BME280;32866;50.160;14.768;2022-07-06T02:59:34;99731.47;;;14.72;96.97
46876;BME280;32866;50.160;14.768;2022-07-06T03:02:01;99737.31;;;14.65;94.95
46876;BME280;32866;50.160;14.768;2022-07-06T03:04:26;99740.06;;;14.74;95.62
46876;BME280;32866;50.160;14.768;2022-07-06T03:06:51;99735.78;;;14.82;94.12
46876;BME280;32866;50.160;14.768;2022-07-06T03:09:17;99740.84;;;14.75;95.53
46876;BME280;32866;50.160;14.768;2022-07-06T03:11:42;99762.16;;;14.93;94.68
46876;BME280;32866;50.160;14.768;2022-07-06T03:14:07;99750.97;;;14.87;97.34
46876;BME280;32866;50.160;14.768;2022-07-06T03:16:32;99754.19;;;15.13;92.21
46876;BME280;32866;50.160;14.768;2022-07-06T03:18:57;99754.97;;;15.14;91.38
46876;BME280;32866;50.160;14.768;2022-07-06T03:21:23;99754.78;;;15.08;94.51
46876;BME280;32866;50.160;14.768;2022-07-06T03:23:48;99762.47;;;15.23;94.71
46876;BME280;32866;50.160;14.768;2022-07-06T03:26:13;99768.28;;;15.25;92.67
46876;BME280;32866;50.160;14.768;2022-07-06T03:28:39;99776.91;;;15.27;93.10
46876;BME280;32866;50.160;14.768;2022-07-06T03:31:04;99776.56;;;15.25;92.11
46876;BME280;32866;50.160;14.768;2022-07-06T03:33:29;99785.78;;;15.31;94.17
46876;BME280;32866;50.160;14.768;2022-07-06T03:35:54;99795.91;;;15.34;92.44
46876;BME280;32866;50.160;14.768;2022-07-06T03:38:20;99801.25;;;15.37;93.09
46876;BME280;32866;50.160;14.768;2022-07-06T03:40:45;99802.94;;;15.26;96.83
46876;BME280;32866;50.160;14.768;2022-07-06T03:43:10;99806.31;;;15.20;96.33
46876;BME280;32866;50.160;14.768;2022-07-06T03:45:35;99798.97;;;15.17;95.85
46876;BME280;32866;50.160;14.768;2022-07-06T03:48:01;99797.44;;;15.26;96.90
46876;BME280;32866;50.160;14.768;2022-07-06T03:50:26;99793.13;;;15.25;99.32
46876;BME280;32866;50.160;14.768;2022-07-06T03:52:51;99786.72;;;15.18;97.53
46876;BME280;32866;50.160;14.768;2022-07-06T03:55:16;99783.78;;;15.13;96.77
46876;BME280;32866;50.160;14.768;2022-07-06T03:57:41;99785.78;;;15.31;95.43
46876;BME280;32866;50.160;14.768;2022-07-06T04:00:07;99783.50;;;15.20;98.48
46876;BME280;32866;50.160;14.768;2022-07-06T04:02:33;99777.63;;;15.18;97.49
46876;BME280;32866;50.160;14.768;2022-07-06T04:04:58;99773.66;;;15.19;99.73
46876;BME280;32866;50.160;14.768;2022-07-06T04:07:23;99772.72;;;15.13;97.57
46876;BME280;32866;50.160;14.768;2022-07-06T04:09:49;99773.19;;;15.11;97.42
46876;BME280;32866;50.160;14.768;2022-07-06T04:12:15;99763.69;;;15.12;96.95
46876;BME280;32866;50.160;14.768;2022-07-06T04:14:40;99771.81;;;15.07;99.83
46876;BME280;32866;50.160;14.768;2022-07-06T04:17:05;99771.03;;;15.06;98.44
46876;BME280;32866;50.160;14.768;2022-07-06T04:19:49;99777.81;;;15.05;97.06
46876;BME280;32866;50.160;14.768;2022-07-06T04:22:14;99779.63;;;15.08;97.00
46876;BME280;32866;50.160;14.768;2022-07-06T04:24:39;99775.50;;;15.13;96.55
46876;BME280;32866;50.160;14.768;2022-07-06T04:27:05;99783.31;;;15.24;96.47
46876;BME280;32866;50.160;14.768;2022-07-06T04:29:30;99801.09;;;15.41;97.30
46876;BME280;32866;50.160;14.768;2022-07-06T04:31:55;99807.69;;;15.53;97.30
46876;BME280;32866;50.160;14.768;2022-07-06T04:34:20;99804.47;;;15.64;96.24
46876;BME280;32866;50.160;14.768;2022-07-06T04:36:46;99801.69;;;15.73;93.92
46876;BME280;32866;50.160;14.768;2022-07-06T04:39:11;99804.44;;;15.91;92.99
46876;BME280;32866;50.160;14.768;2022-07-06T04:41:37;99811.16;;;16.00;89.95
46876;BME280;32866;50.160;14.768;2022-07-06T04:44:02;99810.41;;;15.99;90.40
46876;BME280;32866;50.160;14.768;2022-07-06T04:46:27;99812.38;;;16.08;89.41
46876;BME280;32866;50.160;14.768;2022-07-06T04:48:52;99810.50;;;16.14;91.90
46876;BME280;32866;50.160;14.768;2022-07-06T04:51:18;99806.19;;;16.22;86.95
46876;BME280;32866;50.160;14.768;2022-07-06T04:53:43;99824.28;;;16.23;86.56
46876;BME280;32866;50.160;14.768;2022-07-06T04:56:08;99830.28;;;16.22;86.82
46876;BME280;32866;50.160;14.768;2022-07-06T04:58:33;99839.97;;;16.17;89.65
46876;BME280;32866;50.160;14.768;2022-07-06T05:00:58;99844.72;;;16.17;89.33
46876;BME280;32866;50.160;14.768;2022-07-06T05:03:24;99853.19;;;16.13;91.51
46876;BME280;32866;50.160;14.768;2022-07-06T05:05:49;99862.81;;;16.27;89.81
46876;BME280;32866;50.160;14.768;2022-07-06T05:08:14;99854.25;;;16.25;90.89
46876;BME280;32866;50.160;14.768;2022-07-06T05:10:39;99873.19;;;16.08;91.49
46876;BME280;32866;50.160;14.768;2022-07-06T05:13:04;99872.72;;;16.00;91.47
46876;BME280;32866;50.160;14.768;2022-07-06T05:15:30;99860.91;;;16.00;92.75
46876;BME280;32866;50.160;14.768;2022-07-06T05:17:55;99859.06;;;15.97;92.35
46876;BME280;32866;50.160;14.768;2022-07-06T05:20:20;99872.88;;;15.97;91.30
46876;BME280;32866;50.160;14.768;2022-07-06T05:22:46;99872.25;;;16.02;92.13
46876;BME280;32866;50.160;14.768;2022-07-06T05:25:11;99875.03;;;16.02;92.51
46876;BME280;32866;50.160;14.768;2022-07-06T05:27:36;99878.56;;;16.02;92.95
46876;BME280;32866;50.160;14.768;2022-07-06T05:30:02;99881.47;;;15.99;94.55
46876;BME280;32866;50.160;14.768;2022-07-06T05:32:27;99867.97;;;16.01;92.25
46876;BME280;32866;50.160;14.768;2022-07-06T05:34:53;99871.78;;;16.03;91.74
46876;BME280;32866;50.160;14.768;2022-07-06T05:37:18;99874.38;;;16.16;89.67
46876;BME280;32866;50.160;14.768;2022-07-06T05:39:43;99873.00;;;16.11;91.27
46876;BME280;32866;50.160;14.768;2022-07-06T05:42:10;99869.66;;;16.07;92.17
46876;BME280;32866;50.160;14.768;2022-07-06T05:44:35;99884.22;;;16.08;91.95
46876;BME280;32866;50.160;14.768;2022-07-06T05:47:00;99865.53;;;15.84;90.81
46876;BME280;32866;50.160;14.768;2022-07-06T05:49:44;99861.06;;;15.96;94.86
46876;BME280;32866;50.160;14.768;2022-07-06T05:52:28;99848.00;;;16.06;91.98
46876;BME280;32866;50.160;14.768;2022-07-06T05:54:53;99820.66;;;16.08;93.38
46876;BME280;32866;50.160;14.768;2022-07-06T05:57:18;99844.00;;;16.07;94.62
46876;BME280;32866;50.160;14.768;2022-07-06T05:59:44;99848.63;;;15.91;93.32
46876;BME280;32866;50.160;14.768;2022-07-06T06:02:09;99845.88;;;15.91;94.01
46876;BME280;32866;50.160;14.768;2022-07-06T06:04:34;99848.00;;;15.97;93.30
46876;BME280;32866;50.160;14.768;2022-07-06T06:06:59;99851.06;;;16.08;92.29
46876;BME280;32866;50.160;14.768;2022-07-06T06:09:24;99845.31;;;16.30;91.69
46876;BME280;32866;50.160;14.768;2022-07-06T06:11:49;99841.50;;;16.61;91.29
46876;BME280;32866;50.160;14.768;2022-07-06T06:14:15;99835.63;;;17.40;85.31
46876;BME280;32866;50.160;14.768;2022-07-06T06:16:40;99833.38;;;17.69;81.43
46876;BME280;32866;50.160;14.768;2022-07-06T06:19:05;99839.25;;;18.15;81.16
46876;BME280;32866;50.160;14.768;2022-07-06T06:21:30;99843.44;;;17.96;78.45
46876;BME280;32866;50.160;14.768;2022-07-06T06:23:55;99847.66;;;18.06;79.58
46876;BME280;32866;50.160;14.768;2022-07-06T06:26:21;99838.28;;;17.89;79.16
46876;BME280;32866;50.160;14.768;2022-07-06T06:28:46;99849.53;;;17.70;79.00
46876;BME280;32866;50.160;14.768;2022-07-06T06:31:11;99856.78;;;17.83;81.94
46876;BME280;32866;50.160;14.768;2022-07-06T06:33:37;99853.59;;;17.99;81.92
46876;BME280;32866;50.160;14.768;2022-07-06T06:36:02;99860.94;;;18.32;83.12
46876;BME280;32866;50.160;14.768;2022-07-06T06:38:27;99858.63;;;18.81;82.29
46876;BME280;32866;50.160;14.768;2022-07-06T06:40:54;99859.56;;;19.34;79.10
46876;BME280;32866;50.160;14.768;2022-07-06T06:43:19;99852.41;;;19.74;76.35
46876;BME280;32866;50.160;14.768;2022-07-06T06:45:44;99858.00;;;20.00;72.70
46876;BME280;32866;50.160;14.768;2022-07-06T06:48:11;99867.41;;;19.76;71.99
46876;BME280;32866;50.160;14.768;2022-07-06T06:50:36;99867.91;;;19.54;74.72
46876;BME280;32866;50.160;14.768;2022-07-06T06:53:02;99870.53;;;19.43;69.67
46876;BME280;32866;50.160;14.768;2022-07-06T06:55:27;99871.31;;;19.23;74.62
46876;BME280;32866;50.160;14.768;2022-07-06T06:57:52;99868.97;;;19.16;73.77
46876;BME280;32866;50.160;14.768;2022-07-06T07:00:17;99864.91;;;19.58;72.13
46876;BME280;32866;50.160;14.768;2022-07-06T07:02:44;99862.34;;;19.54;76.12
46876;BME280;32866;50.160;14.768;2022-07-06T07:05:09;99871.78;;;19.42;72.24
46876;BME280;32866;50.160;14.768;2022-07-06T07:07:34;99871.88;;;19.06;72.33
46876;BME280;32866;50.160;14.768;2022-07-06T07:10:00;99875.22;;;19.11;74.71
46876;BME280;32866;50.160;14.768;2022-07-06T07:12:25;99880.28;;;19.33;72.36
46876;BME280;32866;50.160;14.768;2022-07-06T07:14:50;99877.59;;;19.64;72.34
46876;BME280;32866;50.160;14.768;2022-07-06T07:17:15;99881.56;;;20.05;72.54
46876;BME280;32866;50.160;14.768;2022-07-06T07:19:41;99883.75;;;20.53;68.28
46876;BME280;32866;50.160;14.768;2022-07-06T07:22:06;99889.38;;;20.64;68.89
46876;BME280;32866;50.160;14.768;2022-07-06T07:24:31;99885.72;;;20.47;64.39
46876;BME280;32866;50.160;14.768;2022-07-06T07:26:57;99892.28;;;20.81;65.46
46876;BME280;32866;50.160;14.768;2022-07-06T07:29:22;99897.50;;;21.05;66.01
46876;BME280;32866;50.160;14.768;2022-07-06T07:31:47;99895.53;;;21.23;66.95
46876;BME280;32866;50.160;14.768;2022-07-06T07:34:13;99890.44;;;21.16;66.01
46876;BME280;32866;50.160;14.768;2022-07-06T07:36:38;99893.91;;;20.62;67.94
46876;BME280;32866;50.160;14.768;2022-07-06T07:39:04;99899.88;;;20.49;63.10
46876;BME280;32866;50.160;14.768;2022-07-06T07:41:29;99892.16;;;20.64;66.36
46876;BME280;32866;50.160;14.768;2022-07-06T07:43:55;99895.38;;;20.89;65.16
46876;BME280;32866;50.160;14.768;2022-07-06T07:46:20;99889.22;;;21.22;66.13
46876;BME280;32866;50.160;14.768;2022-07-06T07:48:46;99893.09;;;21.42;67.10
46876;BME280;32866;50.160;14.768;2022-07-06T07:51:11;99883.16;;;21.29;63.62
46876;BME280;32866;50.160;14.768;2022-07-06T07:53:36;99890.69;;;21.72;61.68
46876;BME280;32866;50.160;14.768;2022-07-06T07:56:01;99886.41;;;21.82;61.19
46876;BME280;32866;50.160;14.768;2022-07-06T07:58:26;99892.78;;;22.05;61.74
46876;BME280;32866;50.160;14.768;2022-07-06T08:00:52;99902.16;;;22.14;60.50
46876;BME280;32866;50.160;14.768;2022-07-06T08:03:17;99897.34;;;22.20;60.24
46876;BME280;32866;50.160;14.768;2022-07-06T08:05:42;99893.03;;;22.30;63.13
46876;BME280;32866;50.160;14.768;2022-07-06T08:08:08;99897.59;;;22.16;61.79
46876;BME280;32866;50.160;14.768;2022-07-06T08:10:33;99893.56;;;22.34;62.91
46876;BME280;32866;50.160;14.768;2022-07-06T08:12:58;99895.31;;;22.15;62.13
46876;BME280;32866;50.160;14.768;2022-07-06T08:15:23;99900.44;;;22.39;62.96
46876;BME280;32866;50.160;14.768;2022-07-06T08:17:48;99887.75;;;22.32;60.90
46876;BME280;32866;50.160;14.768;2022-07-06T08:20:14;99889.50;;;22.35;61.64
46876;BME280;32866;50.160;14.768;2022-07-06T08:22:39;99889.72;;;22.66;62.30
46876;BME280;32866;50.160;14.768;2022-07-06T08:25:05;99885.19;;;22.51;56.12
46876;BME280;32866;50.160;14.768;2022-07-06T08:27:31;99892.25;;;22.75;56.10
46876;BME280;32866;50.160;14.768;2022-07-06T08:32:31;99893.44;;;23.02;59.74
46876;BME280;32866;50.160;14.768;2022-07-06T08:34:57;99897.50;;;23.12;58.79
46876;BME280;32866;50.160;14.768;2022-07-06T08:37:22;99894.13;;;23.37;60.92
46876;BME280;32866;50.160;14.768;2022-07-06T08:39:47;99892.25;;;22.75;56.35
46876;BME280;32866;50.160;14.768;2022-07-06T08:42:12;99891.50;;;22.63;56.87
46876;BME280;32866;50.160;14.768;2022-07-06T08:44:40;99895.75;;;23.09;61.07
46876;BME280;32866;50.160;14.768;2022-07-06T08:47:06;99898.19;;;23.36;61.48
46876;BME280;32866;50.160;14.768;2022-07-06T08:49:32;99902.38;;;23.59;60.32
46876;BME280;32866;50.160;14.768;2022-07-06T08:51:59;99889.31;;;23.79;52.79
46876;BME280;32866;50.160;14.768;2022-07-06T08:54:24;99895.91;;;23.87;57.68
46876;BME280;32866;50.160;14.768;2022-07-06T08:56:50;99896.47;;;23.74;56.93
46876;BME280;32866;50.160;14.768;2022-07-06T08:59:15;99894.09;;;23.89;57.20
46876;BME280;32866;50.160;14.768;2022-07-06T09:01:41;99898.47;;;24.21;57.00
46876;BME280;32866;50.160;14.768;2022-07-06T09:04:06;99892.56;;;24.30;56.46
46876;BME280;32866;50.160;14.768;2022-07-06T09:06:32;99897.88;;;23.98;52.72
46876;BME280;32866;50.160;14.768;2022-07-06T09:08:58;99898.13;;;23.47;56.06
46876;BME280;32866;50.160;14.768;2022-07-06T09:11:24;99895.38;;;23.36;56.07
46876;BME280;32866;50.160;14.768;2022-07-06T09:13:50;99890.50;;;23.47;56.26
46876;BME280;32866;50.160;14.768;2022-07-06T09:16:16;99890.75;;;23.49;56.56
46876;BME280;32866;50.160;14.768;2022-07-06T09:18:45;99885.88;;;23.61;55.54
46876;BME280;32866;50.160;14.768;2022-07-06T09:21:10;99888.97;;;23.52;51.16
46876;BME280;32866;50.160;14.768;2022-07-06T09:23:36;99893.47;;;23.66;55.85
46876;BME280;32866;50.160;14.768;2022-07-06T09:26:02;99894.91;;;23.26;50.57
46876;BME280;32866;50.160;14.768;2022-07-06T09:28:44;99882.75;;;23.23;56.97
46876;BME280;32866;50.160;14.768;2022-07-06T09:31:10;99878.47;;;22.94;54.59
46876;BME280;32866;50.160;14.768;2022-07-06T09:33:36;99885.09;;;22.96;55.06
46876;BME280;32866;50.160;14.768;2022-07-06T09:36:01;99886.84;;;23.05;59.72
46876;BME280;32866;50.160;14.768;2022-07-06T09:38:27;99887.78;;;23.30;52.37
46876;BME280;32866;50.160;14.768;2022-07-06T09:40:52;99880.28;;;23.61;51.16
46876;BME280;32866;50.160;14.768;2022-07-06T09:43:18;99879.09;;;23.93;53.84
46876;BME280;32866;50.160;14.768;2022-07-06T09:45:45;99879.00;;;24.34;51.69
46876;BME280;32866;50.160;14.768;2022-07-06T09:48:12;99877.97;;;24.68;50.37
46876;BME280;32866;50.160;14.768;2022-07-06T09:50:48;99878.72;;;24.93;50.64
46876;BME280;32866;50.160;14.768;2022-07-06T09:53:16;99864.63;;;24.98;46.77
46876;BME280;32866;50.160;14.768;2022-07-06T09:55:45;99867.97;;;24.97;46.00
46876;BME280;32866;50.160;14.768;2022-07-06T09:58:10;99866.47;;;25.40;47.49
46876;BME280;32866;50.160;14.768;2022-07-06T10:00:36;99865.09;;;25.46;48.98
46876;BME280;32866;50.160;14.768;2022-07-06T10:05:30;99861.69;;;24.36;48.64
46876;BME280;32866;50.160;14.768;2022-07-06T10:07:58;99863.44;;;24.39;48.47
46876;BME280;32866;50.160;14.768;2022-07-06T10:10:27;99863.97;;;24.92;49.02
46876;BME280;32866;50.160;14.768;2022-07-06T10:12:54;99857.06;;;24.93;52.09
46876;BME280;32866;50.160;14.768;2022-07-06T10:15:20;99855.84;;;24.89;47.85
46876;BME280;32866;50.160;14.768;2022-07-06T10:17:46;99856.97;;;24.25;43.46
46876;BME280;32866;50.160;14.768;2022-07-06T10:20:12;99860.94;;;23.63;46.57
46876;BME280;32866;50.160;14.768;2022-07-06T10:22:38;99862.72;;;23.13;51.59
46876;BME280;32866;50.160;14.768;2022-07-06T10:25:04;99858.66;;;22.97;48.13
46876;BME280;32866;50.160;14.768;2022-07-06T10:27:30;99858.25;;;22.54;53.14
46876;BME280;32866;50.160;14.768;2022-07-06T10:29:56;99861.31;;;22.50;54.82
46876;BME280;32866;50.160;14.768;2022-07-06T10:32:21;99850.19;;;22.39;53.78
46876;BME280;32866;50.160;14.768;2022-07-06T10:34:48;99865.88;;;22.42;51.50
46876;BME280;32866;50.160;14.768;2022-07-06T10:37:23;99862.00;;;23.55;53.99
46876;BME280;32866;50.160;14.768;2022-07-06T10:39:49;99852.69;;;24.73;50.44
46876;BME280;32866;50.160;14.768;2022-07-06T10:42:44;99857.50;;;25.60;44.86
46876;BME280;32866;50.160;14.768;2022-07-06T10:45:11;99851.22;;;25.73;46.98
46876;BME280;32866;50.160;14.768;2022-07-06T10:47:36;99851.78;;;26.04;46.95
46876;BME280;32866;50.160;14.768;2022-07-06T10:50:04;99853.56;;;25.69;46.07
46876;BME280;32866;50.160;14.768;2022-07-06T10:55:30;99859.59;;;24.72;46.84
46876;BME280;32866;50.160;14.768;2022-07-06T10:57:56;99868.13;;;23.95;49.86
46876;BME280;32866;50.160;14.768;2022-07-06T11:00:21;99870.41;;;24.26;50.05
46876;BME280;32866;50.160;14.768;2022-07-06T11:02:46;99871.28;;;24.16;49.21
46876;BME280;32866;50.160;14.768;2022-07-06T11:05:13;99859.44;;;24.84;51.28
46876;BME280;32866;50.160;14.768;2022-07-06T11:07:59;99859.84;;;25.37;45.75
46876;BME280;32866;50.160;14.768;2022-07-06T11:10:25;99865.91;;;25.60;46.22
46876;BME280;32866;50.160;14.768;2022-07-06T11:12:57;99861.59;;;25.78;43.62
46876;BME280;32866;50.160;14.768;2022-07-06T11:15:46;99852.41;;;25.97;45.70
46876;BME280;32866;50.160;14.768;2022-07-06T11:18:11;99857.66;;;25.68;42.51
46876;BME280;32866;50.160;14.768;2022-07-06T11:20:39;99859.75;;;26.00;44.07
46876;BME280;32866;50.160;14.768;2022-07-06T11:23:04;99864.19;;;25.76;43.02
46876;BME280;32866;50.160;14.768;2022-07-06T11:25:30;99858.06;;;25.40;41.12
46876;BME280;32866;50.160;14.768;2022-07-06T11:27:56;99861.53;;;25.27;45.13
46876;BME280;32866;50.160;14.768;2022-07-06T11:30:21;99865.00;;;25.14;44.89
46876;BME280;32866;50.160;14.768;2022-07-06T11:32:47;99858.81;;;25.59;45.29
46876;BME280;32866;50.160;14.768;2022-07-06T11:35:12;99857.38;;;26.04;44.53
46876;BME280;32866;50.160;14.768;2022-07-06T11:37:37;99855.38;;;26.18;42.52
46876;BME280;32866;50.160;14.768;2022-07-06T11:40:06;99852.44;;;26.10;44.54
46876;BME280;32866;50.160;14.768;2022-07-06T11:42:31;99857.84;;;24.69;42.88
46876;BME280;32866;50.160;14.768;2022-07-06T11:44:57;99868.09;;;24.00;45.10
46876;BME280;32866;50.160;14.768;2022-07-06T11:47:29;99854.91;;;24.56;44.63
46876;BME280;32866;50.160;14.768;2022-07-06T11:49:55;99854.31;;;24.88;43.80
46876;BME280;32866;50.160;14.768;2022-07-06T11:52:20;99842.44;;;25.44;45.30
46876;BME280;32866;50.160;14.768;2022-07-06T11:54:48;99839.53;;;26.34;39.94
46876;BME280;32866;50.160;14.768;2022-07-06T11:57:13;99839.63;;;25.44;43.34
46876;BME280;32866;50.160;14.768;2022-07-06T11:59:39;99833.72;;;24.85;41.54
46876;BME280;32866;50.160;14.768;2022-07-06T12:02:06;99827.28;;;24.41;44.48
46876;BME280;32866;50.160;14.768;2022-07-06T12:04:32;99841.19;;;24.52;43.18
46876;BME280;32866;50.160;14.768;2022-07-06T12:07:01;99841.81;;;24.39;43.28
46876;BME280;32866;50.160;14.768;2022-07-06T12:09:33;99835.25;;;24.61;44.62
46876;BME280;32866;50.160;14.768;2022-07-06T12:11:59;99837.22;;;25.10;42.48
46876;BME280;32866;50.160;14.768;2022-07-06T12:14:28;99831.97;;;25.45;44.98
46876;BME280;32866;50.160;14.768;2022-07-06T12:16:53;99838.41;;;25.59;44.16
46876;BME280;32866;50.160;14.768;2022-07-06T12:19:19;99838.88;;;25.63;43.81
46876;BME280;32866;50.160;14.768;2022-07-06T12:21:47;99828.50;;;26.22;38.50
46876;BME280;32866;50.160;14.768;2022-07-06T12:26:44;99836.34;;;24.77;40.58
46876;BME280;32866;50.160;14.768;2022-07-06T12:29:11;99826.69;;;25.41;44.00
46876;BME280;32866;50.160;14.768;2022-07-06T12:36:43;99829.72;;;24.80;41.08
46876;BME280;32866;50.160;14.768;2022-07-06T12:39:10;99838.28;;;24.03;43.04
46876;BME280;32866;50.160;14.768;2022-07-06T12:41:35;99827.75;;;24.45;43.79
46876;BME280;32866;50.160;14.768;2022-07-06T12:44:02;99838.16;;;24.20;44.49
46876;BME280;32866;50.160;14.768;2022-07-06T12:46:28;99829.31;;;23.80;44.36
46876;BME280;32866;50.160;14.768;2022-07-06T12:48:57;99838.59;;;24.54;46.06
46876;BME280;32866;50.160;14.768;2022-07-06T12:51:23;99837.47;;;24.14;42.48
46876;BME280;32866;50.160;14.768;2022-07-06T12:53:48;99826.75;;;24.42;42.76
46876;BME280;32866;50.160;14.768;2022-07-06T12:56:13;99831.19;;;25.06;43.05
46876;BME280;32866;50.160;14.768;2022-07-06T12:58:40;99819.81;;;25.55;41.98
46876;BME280;32866;50.160;14.768;2022-07-06T13:01:18;99835.97;;;25.68;42.26